Time;durP1;ratioP1;P1;durP2;ratioP2;P2;SDS_P1;SDS_P2;PMS_P1;PMS_P2;Temp;Humidity;BMP_temperature;BMP_pressure;BME280_temperature;BME280_humidity;BME280_pressure;Samples;Min_cycle;Max_cycle;Signal;HPM_P1;HPM_P2
2023/10/08 00:01:33;;;;;;;25.45;14.95;;;15.20;99.90;;;;;;5086476;28;20028;-77
2023/10/08 00:04:04;;;;;;;26.80;14.27;;;15.10;99.90;;;;;;5088252;28;20036;-77
2023/10/08 00:06:32;;;;;;;26.67;13.23;;;15.10;99.30;;;;;;5084222;28;20062;-76
2023/10/08 00:09:00;;;;;;;26.38;13.77;;;15.00;99.70;;;;;;5095949;28;20503;-78
2023/10/08 00:11:30;;;;;;;26.30;13.77;;;15.00;99.10;;;;;;5085861;28;20055;-76
2023/10/08 00:14:00;;;;;;;29.10;13.35;;;15.10;99.90;;;;;;5086821;28;20036;-77
2023/10/08 00:16:28;;;;;;;29.83;15.05;;;15.00;99.70;;;;;;5087138;28;20048;-77
2023/10/08 00:18:59;;;;;;;27.95;13.57;;;15.00;99.90;;;;;;5071171;28;20127;-75
2023/10/08 00:21:27;;;;;;;27.33;13.38;;;15.10;99.60;;;;;;5070246;28;20051;-78
2023/10/08 00:23:58;;;;;;;26.80;13.93;;;15.20;99.90;;;;;;5091389;28;20060;-74
2023/10/08 00:26:31;;;;;;;30.63;14.45;;;15.20;99.90;;;;;;5084277;28;20537;-74
2023/10/08 00:29:00;;;;;;;30.00;14.23;;;15.30;99.70;;;;;;5086025;28;20384;-76
2023/10/08 00:31:37;;;;;;;30.45;13.73;;;15.20;99.70;;;;;;5067491;28;20131;-76
2023/10/08 00:34:13;;;;;;;23.70;12.50;;;15.00;99.90;;;;;;5090403;28;20067;-76
2023/10/08 00:36:44;;;;;;;25.33;13.52;;;14.90;99.40;;;;;;5079079;28;20389;-76
2023/10/08 00:39:14;;;;;;;24.13;12.90;;;14.90;99.80;;;;;;5054182;28;20111;-77
2023/10/08 00:41:45;;;;;;;;;;;14.80;99.90;;;;;;5071657;28;20399;-77
2023/10/08 00:44:15;;;;;;;23.80;13.75;;;14.70;99.90;;;;;;5089554;28;20430;-75
2023/10/08 00:46:53;;;;;;;28.27;14.00;;;14.70;99.90;;;;;;5087317;28;20036;-74
2023/10/08 00:54:28;;;;;;;25.45;13.65;;;14.90;99.90;;;;;;5088079;28;20043;-75
2023/10/08 00:56:58;;;;;;;24.70;13.15;;;14.80;99.90;;;;;;5086798;28;20036;-74
2023/10/08 00:59:25;;;;;;;26.52;13.50;;;14.70;99.90;;;;;;5083819;28;20039;-74
2023/10/08 01:02:04;;;;;;;30.08;13.95;;;14.60;99.90;;;;;;5089320;28;20462;-74
2023/10/08 01:04:34;;;;;;;29.48;15.30;;;14.50;99.90;;;;;;5085449;28;20423;-74
2023/10/08 01:07:12;;;;;;;27.73;15.13;;;14.60;99.90;;;;;;5068636;28;20044;-74
2023/10/08 01:09:42;;;;;;;25.80;12.43;;;14.50;99.90;;;;;;5085035;28;20040;-75
2023/10/08 01:12:12;;;;;;;;;;;14.60;99.90;;;;;;5069703;28;20032;-78
2023/10/08 01:14:42;;;;;;;22.48;12.38;;;14.40;99.90;;;;;;5071997;28;19927;-74
2023/10/08 01:17:19;;;;;;;25.20;13.55;;;14.40;99.90;;;;;;5083955;28;20389;-76
2023/10/08 01:20:08;;;;;;;24.52;13.50;;;14.40;99.90;;;;;;5054490;28;20044;-73
2023/10/08 01:22:38;;;;;;;31.55;15.05;;;14.40;99.90;;;;;;5071411;28;20066;-78
2023/10/08 01:25:07;;;;;;;28.63;14.48;;;14.50;99.90;;;;;;5089969;28;20044;-76
2023/10/08 01:27:34;;;;;;;25.92;13.45;;;14.40;99.90;;;;;;5081359;28;20051;-74
2023/10/08 01:30:14;;;;;;;26.58;13.52;;;14.20;99.90;;;;;;5089929;28;20063;-75
2023/10/08 01:32:43;;;;;;;25.13;13.50;;;14.00;99.90;;;;;;5092075;28;20405;-76
2023/10/08 01:35:22;;;;;;;20.13;12.20;;;13.90;99.90;;;;;;5071971;28;20537;-75
2023/10/08 01:37:51;;;;;;;27.23;12.63;;;13.90;99.90;;;;;;5072394;28;20040;-74
2023/10/08 01:40:18;;;;;;;22.42;12.38;;;14.00;99.90;;;;;;5088756;28;20296;-77
2023/10/08 01:42:46;;;;;;;18.83;12.13;;;13.90;99.90;;;;;;5089419;28;20090;-76
2023/10/08 01:45:17;;;;;;;20.35;10.23;;;14.00;99.90;;;;;;5085705;28;20068;-76
2023/10/08 01:47:52;;;;;;;19.55;9.85;;;14.00;99.90;;;;;;5071694;28;20113;-78
2023/10/08 01:50:22;;;;;;;15.50;9.20;;;13.90;99.90;;;;;;5063623;28;20127;-78
2023/10/08 01:52:51;;;;;;;15.25;10.18;;;14.00;99.90;;;;;;5083823;28;20046;-76
2023/10/08 01:55:19;;;;;;;21.50;10.07;;;14.00;99.90;;;;;;5085710;28;20513;-78
2023/10/08 01:57:47;;;;;;;22.00;11.00;;;14.10;99.90;;;;;;5071454;28;20126;-78
2023/10/08 02:00:26;;;;;;;23.58;11.35;;;14.00;99.90;;;;;;5089742;28;20045;-77
2023/10/08 02:02:59;;;;;;;20.25;11.00;;;14.00;99.90;;;;;;5071381;28;20040;-76
2023/10/08 02:05:26;;;;;;;19.27;10.65;;;14.10;99.90;;;;;;5089324;28;20036;-77
2023/10/08 02:07:54;;;;;;;16.77;10.82;;;14.10;99.90;;;;;;5071014;28;20044;-78
2023/10/08 02:10:22;;;;;;;20.35;11.00;;;13.90;99.90;;;;;;5089133;28;20495;-75
2023/10/08 02:12:49;;;;;;;23.25;12.40;;;13.90;99.90;;;;;;5089035;28;20919;-78
2023/10/08 02:15:16;;;;;;;20.08;11.18;;;13.80;99.90;;;;;;5089398;28;20379;-78
2023/10/08 02:17:43;;;;;;;15.60;10.80;;;13.70;99.90;;;;;;5089311;28;20040;-77
2023/10/08 02:20:12;;;;;;;22.58;12.35;;;13.70;99.90;;;;;;5084145;28;20032;-75
2023/10/08 02:22:39;;;;;;;23.42;11.60;;;13.70;99.90;;;;;;5085797;28;20098;-75
2023/10/08 02:25:09;;;;;;;25.33;11.57;;;13.60;99.90;;;;;;5089057;28;20036;-75
2023/10/08 02:27:37;;;;;;;20.77;11.35;;;13.50;99.90;;;;;;5062139;28;20052;-75
2023/10/08 02:30:09;;;;;;;19.90;11.75;;;13.60;99.90;;;;;;5054135;28;20100;-75
2023/10/08 02:32:42;;;;;;;18.08;11.43;;;13.60;99.90;;;;;;5091143;28;20122;-76
2023/10/08 02:35:13;;;;;;;21.98;11.60;;;13.60;99.90;;;;;;5075932;28;20449;-75
2023/10/08 02:37:40;;;;;;;;;;;13.60;99.90;;;;;;5091234;28;20090;-78
2023/10/08 02:40:19;;;;;;;22.08;12.93;;;13.50;99.90;;;;;;5089572;28;19924;-77
2023/10/08 02:42:48;;;;;;;19.45;12.23;;;13.60;99.90;;;;;;5093211;28;20044;-75
2023/10/08 02:45:16;;;;;;;21.98;12.82;;;13.50;99.90;;;;;;5092904;28;20115;-73
2023/10/08 02:47:46;;;;;;;25.30;12.35;;;13.40;99.90;;;;;;5075247;28;20044;-75
2023/10/08 02:50:17;;;;;;;;;;;13.40;99.90;;;;;;5092765;28;20563;-75
2023/10/08 02:52:44;;;;;;;18.67;11.23;;;13.40;99.90;;;;;;5092888;28;19924;-77
2023/10/08 02:55:58;;;;;;;18.00;11.80;;;13.30;99.90;;;;;;5092588;28;20119;-77
2023/10/08 02:58:02;;;;;;;21.38;12.02;;;13.20;99.90;;;;;;5078579;28;20044;-76
2023/10/08 03:00:30;;;;;;;26.77;12.88;;;13.30;99.90;;;;;;5075481;28;20539;-77
2023/10/08 03:03:01;;;;;;;21.40;11.77;;;13.30;99.90;;;;;;5074771;28;20036;-74
2023/10/08 03:05:35;;;;;;;24.42;11.77;;;13.30;99.90;;;;;;5092614;28;20035;-76
2023/10/08 03:08:10;;;;;;;18.25;10.48;;;13.20;99.90;;;;;;5074973;28;20051;-77
2023/10/08 03:10:39;;;;;;;18.95;11.77;;;12.90;99.90;;;;;;5071508;28;20399;-75
2023/10/08 03:13:09;;;;;;;22.33;11.32;;;13.00;99.90;;;;;;5092776;28;20028;-75
2023/10/08 03:18:22;;;;;;;25.55;13.15;;;12.80;99.90;;;;;;5092463;28;20055;-76
2023/10/08 03:20:50;;;;;;;24.83;13.68;;;12.80;99.90;;;;;;5074129;28;20052;-74
2023/10/08 03:23:23;;;;;;;19.45;12.23;;;12.80;99.90;;;;;;5092128;28;20043;-76
2023/10/08 03:25:59;;;;;;;22.67;11.95;;;12.90;99.90;;;;;;5092332;28;20114;-76
2023/10/08 03:28:27;;;;;;;20.05;10.40;;;12.80;99.90;;;;;;5074217;28;20148;-77
2023/10/08 03:31:05;;;;;;;21.25;11.80;;;12.90;99.90;;;;;;5074144;28;20066;-77
2023/10/08 03:33:35;;;;;;;24.67;11.45;;;13.00;99.90;;;;;;5091972;28;20044;-77
2023/10/08 03:36:27;;;;;;;28.67;13.18;;;13.00;99.90;;;;;;5092064;28;20068;-76
2023/10/08 03:38:54;;;;;;;16.50;10.02;;;13.00;99.90;;;;;;5091199;28;20464;-76
2023/10/08 03:41:27;;;;;;;16.00;10.57;;;13.00;99.90;;;;;;5073591;28;20054;-76
2023/10/08 03:44:05;;;;;;;16.58;10.63;;;13.00;99.90;;;;;;5091026;28;20445;-77
2023/10/08 03:46:42;;;;;;;18.92;10.95;;;13.00;99.90;;;;;;5069448;28;20495;-76
2023/10/08 03:51:52;;;;;;;19.92;11.00;;;12.90;99.90;;;;;;5084459;28;20041;-78
2023/10/08 03:54:48;;;;;;;19.65;10.13;;;13.00;99.90;;;;;;5090261;28;20107;-76
2023/10/08 03:57:14;;;;;;;20.05;11.00;;;12.70;99.90;;;;;;5087848;28;20044;-76
2023/10/08 03:59:42;;;;;;;17.58;11.20;;;12.70;99.90;;;;;;5091291;28;20036;-77
2023/10/08 04:02:23;;;;;;;19.20;11.45;;;12.80;99.90;;;;;;5091706;28;20124;-76
2023/10/08 04:04:51;;;;;;;19.80;11.40;;;12.60;99.90;;;;;;5091726;28;20043;-77
2023/10/08 04:12:42;;;;;;;21.45;11.90;;;12.50;99.90;;;;;;5087397;28;20136;-76
2023/10/08 04:15:09;;;;;;;27.27;13.27;;;12.60;99.90;;;;;;5091775;28;20503;-76
2023/10/08 04:17:43;;;;;;;24.58;12.00;;;12.50;99.90;;;;;;5090589;28;20040;-76
2023/10/08 04:20:33;;;;;;;26.27;13.25;;;12.40;99.90;;;;;;5070788;28;20040;-76
2023/10/08 04:23:03;;;;;;;24.50;13.02;;;12.50;99.90;;;;;;5073518;28;20144;-79
2023/10/08 04:25:32;;;;;;;23.40;12.50;;;12.60;99.90;;;;;;5073166;28;20530;-77
2023/10/08 04:28:00;;;;;;;20.90;12.30;;;12.50;99.90;;;;;;5091559;28;20553;-77
2023/10/08 04:30:33;;;;;;;25.88;14.05;;;12.60;99.90;;;;;;5091253;28;20050;-77
2023/10/08 04:33:07;;;;;;;24.13;13.65;;;12.40;99.90;;;;;;5091284;28;20407;-75
2023/10/08 04:38:28;;;;;;;24.40;14.10;;;12.40;99.90;;;;;;5084345;28;20502;-74
2023/10/08 04:41:01;;;;;;;23.67;13.13;;;12.10;99.90;;;;;;5081556;28;20056;-78
2023/10/08 04:43:37;;;;;;;21.83;13.43;;;12.20;99.90;;;;;;5072830;28;20430;-78
2023/10/08 04:48:52;;;;;;;24.40;13.05;;;12.40;99.90;;;;;;5043300;28;20080;-77
2023/10/08 04:51:22;;;;;;;24.50;12.98;;;12.50;99.90;;;;;;5088796;28;20043;-78
2023/10/08 04:53:50;;;;;;;29.15;15.63;;;12.50;99.90;;;;;;5080461;28;20040;-78
2023/10/08 04:56:17;;;;;;;27.38;14.38;;;12.40;99.90;;;;;;5072258;28;20450;-78
2023/10/08 04:58:46;;;;;;;28.33;15.93;;;12.50;99.90;;;;;;5072757;28;20052;-77
2023/10/08 05:01:18;;;;;;;31.38;16.35;;;12.50;99.90;;;;;;5088223;28;20076;-78
2023/10/08 05:04:07;;;;;;;33.60;15.52;;;12.50;99.90;;;;;;5089783;28;20049;-78
2023/10/08 05:17:34;;;;;;;27.98;15.02;;;12.50;99.90;;;;;;5071820;28;20048;-75
2023/10/08 05:25:24;;;;;;;29.67;14.68;;;12.60;99.90;;;;;;5068617;28;20561;-78
2023/10/08 05:54:57;;;;;;;19.45;10.15;;;13.30;99.90;;;;;;5069394;28;20032;-77
2023/10/08 06:13:13;;;;;;;27.60;14.40;;;13.50;99.90;;;;;;5089770;28;20555;-77
2023/10/08 06:18:34;;;;;;;31.38;17.38;;;13.70;99.90;;;;;;5070470;28;20070;-77
2023/10/08 06:21:08;;;;;;;27.52;16.02;;;13.60;99.90;;;;;;5071512;28;20040;-77
2023/10/08 06:23:38;;;;;;;18.80;11.68;;;13.50;99.90;;;;;;5055540;28;20134;-78
2023/10/08 06:28:42;;;;;;;16.20;10.27;;;13.40;99.90;;;;;;5071193;28;20449;-78
2023/10/08 06:31:16;;;;;;;14.07;10.35;;;13.50;99.90;;;;;;5054873;28;20133;-75
2023/10/08 06:34:03;;;;;;;20.58;10.48;;;13.60;99.90;;;;;;5073730;28;20032;-76
2023/10/08 06:36:31;;;;;;;16.85;10.23;;;13.60;99.90;;;;;;5055081;28;20032;-77
2023/10/08 06:38:59;;;;;;;16.02;9.88;;;13.60;99.90;;;;;;5053542;28;20044;-75
2023/10/08 06:41:33;;;;;;;15.32;10.25;;;13.60;99.90;;;;;;5054319;28;20448;-76
2023/10/08 06:44:16;;;;;;;17.33;10.13;;;13.60;99.90;;;;;;5056775;28;20054;-78
2023/10/08 06:46:45;;;;;;;17.75;9.73;;;13.60;99.90;;;;;;5071938;28;20044;-77
2023/10/08 06:49:13;;;;;;;18.65;10.43;;;13.60;99.90;;;;;;5055539;28;20070;-78
2023/10/08 06:51:53;;;;;;;14.95;10.07;;;13.70;99.90;;;;;;5050690;28;20117;-79
2023/10/08 06:54:24;;;;;;;15.90;9.60;;;13.90;99.90;;;;;;5071741;28;20036;-77
2023/10/08 06:57:20;;;;;;;15.20;10.15;;;14.00;99.90;;;;;;5068843;28;20047;-78
2023/10/08 06:59:50;;;;;;;15.98;9.73;;;14.10;99.90;;;;;;5054484;28;20044;-77
2023/10/08 07:02:18;;;;;;;17.38;10.63;;;14.20;99.90;;;;;;5071630;28;20052;-78
2023/10/08 07:04:47;;;;;;;19.30;10.60;;;14.30;99.90;;;;;;5071613;28;20060;-79
2023/10/08 07:07:18;;;;;;;18.08;10.35;;;14.40;99.90;;;;;;5089405;28;20434;-77
2023/10/08 07:09:46;;;;;;;15.70;10.60;;;14.40;99.90;;;;;;5070872;28;20392;-77
2023/10/08 07:12:19;;;;;;;13.73;9.43;;;14.40;99.90;;;;;;5052162;28;20045;-76
2023/10/08 07:14:46;;;;;;;16.55;10.65;;;14.40;99.90;;;;;;5052444;28;20036;-78
2023/10/08 07:17:19;;;;;;;15.60;10.32;;;14.50;99.90;;;;;;5054481;28;20140;-80
2023/10/08 07:19:53;;;;;;;18.02;9.95;;;14.50;99.90;;;;;;5059289;28;20047;-78
2023/10/08 07:22:28;;;;;;;15.95;9.70;;;14.60;99.90;;;;;;5057044;28;20043;-81
2023/10/08 07:25:20;;;;;;;16.30;10.23;;;14.80;99.90;;;;;;5058792;28;20074;-79
2023/10/08 07:28:12;;;;;;;15.45;10.48;;;14.90;99.90;;;;;;5059741;28;20048;-79
2023/10/08 07:30:43;;;;;;;16.73;10.52;;;15.00;99.90;;;;;;5038502;28;20694;-79
2023/10/08 07:33:17;;;;;;;16.02;10.15;;;15.20;99.90;;;;;;5054728;28;20059;-81
2023/10/08 07:36:18;;;;;;;133.43;71.60;;;15.40;99.90;;;;;;5069244;28;20058;-80
2023/10/08 07:38:46;;;;;;;73.07;44.42;;;15.80;99.90;;;;;;5051912;28;20043;-80
2023/10/08 07:41:15;;;;;;;29.65;20.35;;;16.10;99.90;;;;;;5075881;28;20044;-82
2023/10/08 07:43:55;;;;;;;34.17;20.85;;;16.40;99.90;;;;;;5092733;28;20040;-82
2023/10/08 07:46:34;;;;;;;29.90;17.45;;;16.50;99.90;;;;;;5069656;28;20126;-81
2023/10/08 07:49:04;;;;;;;32.60;19.10;;;16.60;99.10;;;;;;5064129;28;20028;-80
2023/10/08 07:51:32;;;;;;;54.22;33.22;;;17.00;99.70;;;;;;5069711;28;20137;-81
2023/10/08 07:54:09;;;;;;;45.60;28.20;;;17.20;98.50;;;;;;5042178;28;20032;-81
2023/10/08 07:57:11;;;;;;;174.20;102.93;;;17.30;98.30;;;;;;5040286;28;20093;-80
2023/10/08 08:00:25;;;;;;;33.22;22.05;;;17.40;98.00;;;;;;5073462;28;20044;-80
2023/10/08 08:03:04;;;;;;;23.42;14.57;;;17.60;97.30;;;;;;5061885;28;20561;-81
2023/10/08 08:05:33;;;;;;;26.33;15.13;;;17.50;97.00;;;;;;5088754;28;20055;-82
2023/10/08 08:08:05;;;;;;;21.33;12.38;;;17.80;96.40;;;;;;5068479;28;20373;-80
2023/10/08 08:10:38;;;;;;;17.65;12.00;;;17.80;96.20;;;;;;5086785;28;20044;-80
2023/10/08 08:13:09;;;;;;;19.67;11.18;;;17.80;95.80;;;;;;5074199;28;20032;-80
2023/10/08 08:15:41;;;;;;;19.63;11.27;;;17.90;96.00;;;;;;5091143;28;20115;-80
2023/10/08 08:18:18;;;;;;;17.15;10.70;;;18.20;95.50;;;;;;5088182;28;20044;-79
2023/10/08 08:20:47;;;;;;;18.38;10.90;;;18.40;94.90;;;;;;5091019;28;20101;-78
2023/10/08 08:23:21;;;;;;;22.55;11.25;;;18.60;94.60;;;;;;5073500;28;20119;-79
2023/10/08 08:26:06;;;;;;;18.83;11.18;;;18.70;93.90;;;;;;5090771;28;20429;-80
2023/10/08 08:28:34;;;;;;;18.13;10.75;;;19.00;93.70;;;;;;5083517;28;20500;-80
2023/10/08 08:31:13;;;;;;;18.15;10.73;;;19.00;93.60;;;;;;5092484;28;21402;-79
2023/10/08 08:34:19;;;;;;;16.65;10.38;;;19.10;93.30;;;;;;5042365;28;20042;-81
2023/10/08 08:36:39;;;;;;;17.42;10.68;;;19.20;92.50;;;;;;5068804;28;20054;-78
2023/10/08 08:39:08;;;;;;;61.67;39.42;;;19.40;92.60;;;;;;5084495;28;20044;-78
2023/10/08 08:41:38;;;;;;;76.15;43.60;;;19.80;92.00;;;;;;5087362;28;20090;-79
2023/10/08 08:44:06;;;;;;;68.90;45.90;;;19.60;91.90;;;;;;5070233;28;20043;-80
2023/10/08 08:46:35;;;;;;;21.80;15.48;;;19.80;91.40;;;;;;5082099;28;20101;-80
2023/10/08 08:49:09;;;;;;;27.27;20.30;;;20.00;90.90;;;;;;5086717;28;20040;-80
2023/10/08 08:51:36;;;;;;;26.02;16.13;;;19.80;90.20;;;;;;5092479;28;20044;-79
2023/10/08 08:54:06;;;;;;;24.65;13.55;;;19.80;91.50;;;;;;5070660;28;20040;-82
2023/10/08 08:56:38;;;;;;;16.30;10.13;;;20.20;90.90;;;;;;5069746;28;20043;-77
2023/10/08 08:59:11;;;;;;;16.95;11.63;;;20.40;89.30;;;;;;5072944;28;20468;-78
2023/10/08 09:01:44;;;;;;;17.45;10.43;;;20.40;88.70;;;;;;5087911;28;20133;-78
2023/10/08 09:04:16;;;;;;;18.25;10.13;;;20.50;88.00;;;;;;5069543;28;20028;-78
2023/10/08 09:06:45;;;;;;;19.35;10.68;;;20.70;87.70;;;;;;5090654;28;20401;-80
2023/10/08 09:09:25;;;;;;;16.23;10.68;;;20.80;86.70;;;;;;5089261;28;20495;-80
2023/10/08 09:11:54;;;;;;;18.85;10.10;;;20.70;86.90;;;;;;5089003;28;20036;-81
2023/10/08 09:14:25;;;;;;;15.65;9.82;;;20.80;85.80;;;;;;5072678;28;20040;-81
2023/10/08 09:16:54;;;;;;;;;;;21.10;84.50;;;;;;5091678;28;20040;-80
2023/10/08 09:19:24;;;;;;;18.40;10.75;;;21.00;83.90;;;;;;5090065;28;19927;-83
2023/10/08 09:22:09;;;;;;;17.95;9.35;;;21.00;84.20;;;;;;5072666;28;20082;-81
2023/10/08 09:24:39;;;;;;;16.25;10.00;;;21.20;83.70;;;;;;5089976;28;20387;-81
2023/10/08 09:27:07;;;;;;;112.93;68.40;;;21.40;83.00;;;;;;5091037;28;20103;-80
2023/10/08 09:29:39;;;;;;;40.83;27.37;;;21.80;81.70;;;;;;5073064;28;20686;-80
2023/10/08 09:32:13;;;;;;;18.25;12.13;;;21.70;81.30;;;;;;5089915;28;20791;-81
2023/10/08 09:34:43;;;;;;;20.35;10.13;;;21.90;80.80;;;;;;5088685;28;20044;-81
2023/10/08 09:37:11;;;;;;;24.17;11.55;;;22.20;79.70;;;;;;5090755;28;20035;-82
2023/10/08 09:39:41;;;;;;;20.75;12.00;;;22.40;79.80;;;;;;5085034;28;20136;-82
2023/10/08 09:42:12;;;;;;;15.23;10.63;;;22.70;79.10;;;;;;5062456;28;20051;-80
2023/10/08 09:44:39;;;;;;;24.88;10.77;;;22.90;78.00;;;;;;5056456;28;20513;-80
2023/10/08 09:47:12;;;;;;;18.20;10.13;;;23.10;76.90;;;;;;5041625;28;20047;-81
2023/10/08 09:49:45;;;;;;;18.05;9.57;;;22.80;76.20;;;;;;5071332;28;20407;-84
2023/10/08 09:52:18;;;;;;;23.05;10.00;;;22.50;76.80;;;;;;5076588;28;20050;-80
2023/10/08 09:55:12;;;;;;;17.02;8.93;;;22.40;76.20;;;;;;5049722;28;20051;-81
2023/10/08 09:57:50;;;;;;;19.23;9.63;;;22.10;76.20;;;;;;5035926;28;20040;-82
2023/10/08 10:00:40;;;;;;;16.85;10.10;;;22.00;77.40;;;;;;5045444;28;20083;-86
2023/10/08 10:03:28;;;;;;;63.00;38.72;;;21.80;77.60;;;;;;5045094;28;20047;-84
2023/10/08 10:05:59;;;;;;;229.77;136.85;;;22.00;79.70;;;;;;5028867;28;20064;-82
2023/10/08 10:08:35;;;;;;;44.38;29.70;;;22.30;77.80;;;;;;5082076;28;20060;-84
2023/10/08 10:11:03;;;;;;;20.52;14.65;;;22.10;76.40;;;;;;5078543;28;20040;-84
2023/10/08 10:13:39;;;;;;;19.35;11.40;;;22.10;76.80;;;;;;5061417;28;20097;-81
2023/10/08 10:16:13;;;;;;;16.95;9.93;;;22.10;76.50;;;;;;5062910;28;20089;-84
2023/10/08 10:18:44;;;;;;;17.08;9.80;;;22.50;76.30;;;;;;5075658;28;20093;-85
2023/10/08 10:21:12;;;;;;;17.52;9.95;;;22.70;75.70;;;;;;5079244;28;20032;-82
2023/10/08 10:23:45;;;;;;;16.13;9.18;;;23.00;73.90;;;;;;5051313;28;20053;-82
2023/10/08 10:26:30;;;;;;;15.00;10.05;;;22.80;74.50;;;;;;5057876;28;20638;-81
2023/10/08 10:29:15;;;;;;;14.90;8.48;;;23.10;74.40;;;;;;5062519;28;20526;-81
2023/10/08 10:31:52;;;;;;;18.90;8.70;;;23.00;73.60;;;;;;5069768;28;20446;-81
2023/10/08 10:34:30;;;;;;;16.88;9.63;;;23.40;72.30;;;;;;5077140;28;20066;-83
2023/10/08 10:37:02;;;;;;;16.27;9.00;;;23.50;72.10;;;;;;5073605;28;20071;-84
2023/10/08 10:39:34;;;;;;;21.10;9.55;;;24.30;72.30;;;;;;5061896;28;20048;-84
2023/10/08 10:42:04;;;;;;;127.22;85.38;;;24.70;70.10;;;;;;5044166;28;20124;-82
2023/10/08 10:44:36;;;;;;;45.40;31.90;;;25.00;69.40;;;;;;5081420;28;20126;-80
2023/10/08 10:50:18;;;;;;;35.03;23.02;;;25.50;67.00;;;;;;5075112;28;20590;-78
2023/10/08 10:52:45;;;;;;;32.22;19.48;;;25.00;65.30;;;;;;5079865;28;20059;-78
2023/10/08 10:57:56;;;;;;;14.40;8.88;;;25.20;67.10;;;;;;5071309;28;20051;-77
2023/10/08 11:03:23;;;;;;;15.55;8.52;;;25.50;65.30;;;;;;5079940;28;20391;-85
2023/10/08 11:06:05;;;;;;;17.48;9.70;;;25.50;65.10;;;;;;5063669;28;20043;-77
2023/10/08 11:08:35;;;;;;;18.17;8.63;;;25.80;65.80;;;;;;5055274;28;20142;-79
2023/10/08 11:11:07;;;;;;;18.20;9.65;;;25.40;66.30;;;;;;5054081;28;20036;-80
2023/10/08 11:13:38;;;;;;;16.15;8.60;;;25.40;66.30;;;;;;5038188;28;20183;-80
2023/10/08 11:16:13;;;;;;;22.85;10.18;;;25.70;65.40;;;;;;5041858;28;20040;-82
2023/10/08 11:18:47;;;;;;;18.85;8.88;;;25.80;65.90;;;;;;5044123;28;20036;-80
2023/10/08 11:21:23;;;;;;;13.73;8.27;;;26.00;65.00;;;;;;5080128;28;20059;-81
2023/10/08 11:23:53;;;;;;;16.52;7.25;;;26.30;64.20;;;;;;5057028;28;20066;-79
2023/10/08 11:26:35;;;;;;;14.40;7.75;;;27.70;64.20;;;;;;5067483;28;20495;-79
2023/10/08 11:29:03;;;;;;;14.93;7.30;;;30.00;58.30;;;;;;5054182;28;20094;-76
2023/10/08 11:31:33;;;;;;;15.65;7.80;;;31.50;56.20;;;;;;5061646;28;20048;-79
2023/10/08 11:34:12;;;;;;;13.98;7.32;;;32.50;53.10;;;;;;5047195;28;20055;-79
2023/10/08 11:36:53;;;;;;;13.38;7.00;;;33.10;52.80;;;;;;5058578;28;20051;-87
2023/10/08 11:39:30;;;;;;;14.20;7.57;;;33.60;51.80;;;;;;5044066;28;20036;-88
2023/10/08 11:42:06;;;;;;;13.30;6.95;;;33.30;50.80;;;;;;5086204;28;20036;-82
2023/10/08 11:44:37;;;;;;;13.13;7.28;;;30.50;52.80;;;;;;5091469;28;20051;-84
2023/10/08 11:47:11;;;;;;;18.38;8.40;;;29.00;55.20;;;;;;5089194;28;20045;-78
2023/10/08 11:50:10;;;;;;;25.17;7.25;;;28.10;54.30;;;;;;5063637;28;20052;-76
2023/10/08 11:52:28;;;;;;;14.52;7.30;;;27.90;57.10;;;;;;5079601;28;20040;-79
2023/10/08 11:54:57;;;;;;;10.15;6.03;;;27.80;59.30;;;;;;5064541;28;20114;-73
2023/10/08 11:57:25;;;;;;;12.20;5.75;;;27.90;58.20;;;;;;5080478;28;20025;-78
2023/10/08 11:59:54;;;;;;;9.65;5.03;;;28.10;53.40;;;;;;5087311;28;20049;-78
2023/10/08 12:02:22;;;;;;;10.00;5.50;;;28.30;53.80;;;;;;5095608;28;20040;-74
2023/10/08 12:04:51;;;;;;;15.65;6.18;;;28.50;53.10;;;;;;5090669;28;20044;-79
2023/10/08 12:07:19;;;;;;;11.83;5.77;;;28.50;52.90;;;;;;5068000;28;20041;-77
2023/10/08 12:09:48;;;;;;;10.32;5.63;;;28.40;51.20;;;;;;5066002;28;20296;-79
2023/10/08 12:12:23;;;;;;;9.77;5.35;;;28.70;52.30;;;;;;5050767;28;20602;-80
2023/10/08 12:14:54;;;;;;;11.27;6.03;;;28.90;51.40;;;;;;5070516;28;20127;-77
2023/10/08 12:17:29;;;;;;;12.02;6.07;;;28.60;50.60;;;;;;5082066;28;20088;-76
2023/10/08 12:20:12;;;;;;;12.27;5.38;;;28.70;51.70;;;;;;5089231;28;20044;-76
2023/10/08 12:22:39;;;;;;;9.60;5.28;;;29.10;53.60;;;;;;5058687;28;20061;-76
2023/10/08 12:25:13;;;;;;;11.48;5.45;;;28.90;51.30;;;;;;5101649;28;20427;-75
2023/10/08 12:27:49;;;;;;;10.05;5.47;;;28.40;50.20;;;;;;5064369;28;20044;-76
2023/10/08 12:30:16;;;;;;;19.70;5.50;;;27.80;52.20;;;;;;5092473;28;20462;-74
2023/10/08 12:32:46;;;;;;;48.08;30.70;;;27.60;52.90;;;;;;5083395;28;20043;-76
2023/10/08 12:35:13;;;;;;;45.08;29.27;;;27.40;52.10;;;;;;5084467;28;20063;-78
2023/10/08 12:37:44;;;;;;;15.98;8.43;;;27.80;52.30;;;;;;5086420;28;20054;-78
2023/10/08 12:40:33;;;;;;;78.53;48.08;;;28.00;51.90;;;;;;5084734;28;20044;-78
2023/10/08 12:43:04;;;;;;;22.13;7.50;;;27.50;52.00;;;;;;5091916;28;20038;-76
2023/10/08 12:45:33;;;;;;;7.78;3.67;;;27.10;51.70;;;;;;5095058;28;20142;-74
2023/10/08 12:48:02;;;;;;;15.60;5.38;;;27.00;51.40;;;;;;5062101;28;20128;-76
2023/10/08 12:50:44;;;;;;;66.82;39.47;;;27.00;52.20;;;;;;5083680;28;20170;-77
2023/10/08 12:53:15;;;;;;;17.48;6.90;;;27.20;52.00;;;;;;5076229;28;20082;-77
2023/10/08 12:55:46;;;;;;;25.10;12.95;;;27.30;52.80;;;;;;5086929;28;20032;-75
2023/10/08 12:58:16;;;;;;;;;;;27.10;51.70;;;;;;5090686;28;20512;-79
2023/10/08 13:00:57;;;;;;;29.67;14.35;;;27.30;51.90;;;;;;5055981;28;19924;-77
2023/10/08 13:03:31;;;;;;;13.02;5.22;;;28.00;51.10;;;;;;5070565;28;20060;-77
2023/10/08 13:06:11;;;;;;;12.18;4.72;;;28.70;51.30;;;;;;5080744;28;20130;-75
2023/10/08 13:08:38;;;;;;;10.27;4.28;;;29.30;49.50;;;;;;5094516;28;20065;-76
2023/10/08 13:11:07;;;;;;;10.82;5.05;;;29.00;50.30;;;;;;5080362;28;20408;-77
2023/10/08 13:13:37;;;;;;;12.10;4.77;;;29.70;50.50;;;;;;5078726;28;20064;-75
2023/10/08 13:16:07;;;;;;;13.20;4.07;;;29.80;50.20;;;;;;5080643;28;20068;-76
2023/10/08 13:18:37;;;;;;;7.13;3.30;;;30.00;49.50;;;;;;5088416;28;20127;-76
2023/10/08 13:21:10;;;;;;;11.05;4.20;;;29.50;47.80;;;;;;5086987;28;20036;-76
2023/10/08 13:23:37;;;;;;;12.82;3.90;;;29.10;49.30;;;;;;5073953;28;20132;-76
2023/10/08 13:26:06;;;;;;;13.07;4.57;;;29.80;50.50;;;;;;5095480;28;20043;-75
2023/10/08 13:28:39;;;;;;;11.18;5.10;;;30.00;49.50;;;;;;5094006;28;20102;-77
2023/10/08 13:31:11;;;;;;;67.03;43.80;;;30.10;51.40;;;;;;5094492;28;20040;-77
2023/10/08 13:33:42;;;;;;;24.60;16.50;;;30.70;50.30;;;;;;5093523;28;20071;-77
2023/10/08 13:36:13;;;;;;;22.60;13.18;;;30.80;50.60;;;;;;5093893;28;20369;-76
2023/10/08 13:38:47;;;;;;;10.27;4.30;;;31.00;49.70;;;;;;5093422;28;20039;-75
2023/10/08 13:41:15;;;;;;;14.25;4.80;;;30.30;47.20;;;;;;5059436;28;20169;-78
2023/10/08 13:44:12;;;;;;;26.48;7.60;;;29.30;48.50;;;;;;5075122;28;20066;-76
2023/10/08 13:47:50;;;;;;;17.92;5.50;;;29.80;49.60;;;;;;5092783;28;20878;-79
2023/10/08 13:51:25;;;;;;;26.30;7.75;;;28.80;50.60;;;;;;5051307;28;20071;-79
2023/10/08 13:59:04;;;;;;;8.50;3.92;;;30.80;48.10;;;;;;5098457;28;20134;-79
2023/10/08 14:02:39;;;;;;;11.70;4.65;;;31.00;46.30;;;;;;5098787;28;20043;-77
2023/10/08 14:05:15;;;;;;;12.98;3.72;;;29.90;48.90;;;;;;5082707;28;20044;-77
2023/10/08 14:07:51;;;;;;;15.88;3.55;;;29.70;48.40;;;;;;5074614;28;20127;-78
2023/10/08 14:10:29;;;;;;;9.20;3.60;;;29.90;47.90;;;;;;5088875;28;20051;-80
2023/10/08 14:13:01;;;;;;;12.52;4.28;;;30.70;47.60;;;;;;5084722;28;20036;-79
2023/10/08 14:15:43;;;;;;;15.27;4.95;;;28.30;48.90;;;;;;5093019;28;20051;-77
2023/10/08 14:18:16;;;;;;;14.27;4.32;;;27.70;50.50;;;;;;5097349;28;20032;-77
2023/10/08 14:21:01;;;;;;;12.90;5.28;;;29.10;50.50;;;;;;5094617;28;20043;-77
2023/10/08 14:23:32;;;;;;;11.13;4.10;;;32.30;47.40;;;;;;5094215;28;20051;-79
2023/10/08 14:26:21;;;;;;;11.35;3.97;;;32.40;46.10;;;;;;5094694;28;20064;-79
2023/10/08 14:28:53;;;;;;;11.07;4.45;;;31.10;46.40;;;;;;5100518;28;20044;-77
2023/10/08 14:31:22;;;;;;;10.93;4.30;;;29.50;48.90;;;;;;5088844;28;20032;-78
2023/10/08 14:34:18;;;;;;;7.97;3.60;;;28.20;50.00;;;;;;5098951;28;20044;-78
2023/10/08 14:45:13;;;;;;;12.70;5.30;;;27.10;52.00;;;;;;5097130;28;20506;-77
2023/10/08 14:47:41;;;;;;;17.05;5.22;;;27.00;52.50;;;;;;5069426;28;20047;-79
2023/10/08 14:50:16;;;;;;;10.05;5.05;;;27.10;51.70;;;;;;5086080;28;20047;-77
2023/10/08 14:52:50;;;;;;;;;;;27.00;52.70;;;;;;5090209;28;20256;-76
2023/10/08 14:55:29;;;;;;;;;;;26.70;52.00;;;;;;5091260;28;19920;-80